Time;durP1;ratioP1;P1;durP2;ratioP2;P2;SDS_P1;SDS_P2;PMS_P1;PMS_P2;Temp;Humidity;BMP_temperature;BMP_pressure;BME280_temperature;BME280_humidity;BME280_pressure;Samples;Min_cycle;Max_cycle;Signal;HPM_P1;HPM_P2
2022/04/26 03:37:09;;;;;;;1.05;0.68;;;;;;;8.89;66.83;101789.97;4993774;28;96626;-34
2022/04/26 03:39:34;;;;;;;1.05;0.80;;;;;;;8.90;67.18;101798.97;4993279;28;98746;-34
2022/04/26 03:42:02;;;;;;;1.60;1.15;;;;;;;8.90;67.30;101789.03;4993237;28;115119;-34
2022/04/26 03:44:28;;;;;;;1.75;1.20;;;;;;;8.95;67.01;101801.47;4992157;28;97387;-34
2022/04/26 03:46:53;;;;;;;0.63;0.57;;;;;;;8.96;67.42;101803.22;4992417;28;96797;-34
2022/04/26 03:49:20;;;;;;;2.50;0.95;;;;;;;8.96;67.76;101805.94;4993175;28;99618;-34
2022/04/26 03:51:45;;;;;;;2.35;0.88;;;;;;;8.91;67.72;101811.50;4992365;28;100675;-34
2022/04/26 03:54:11;;;;;;;1.70;0.85;;;;;;;8.87;67.59;101799.97;4991778;28;105348;-34
2022/04/26 03:56:36;;;;;;;1.75;1.15;;;;;;;8.90;67.77;101805.25;4992820;28;121501;-34
2022/04/26 03:59:01;;;;;;;1.05;0.75;;;;;;;8.86;67.87;101800.88;4992488;28;109094;-34
2022/04/26 04:01:26;;;;;;;3.28;1.27;;;;;;;8.86;68.30;101797.31;4992419;28;126723;-34
2022/04/26 04:03:52;;;;;;;1.35;0.77;;;;;;;8.87;68.20;101802.66;4992554;28;121089;-34
2022/04/26 04:06:17;;;;;;;2.38;1.08;;;;;;;8.83;68.57;101800.13;4992283;28;118039;-34
2022/04/26 04:08:42;;;;;;;5.57;1.55;;;;;;;8.86;68.58;101806.28;4990929;28;112628;-34
2022/04/26 04:11:07;;;;;;;2.72;1.30;;;;;;;8.82;68.92;101799.28;4991672;28;126282;-34
2022/04/26 04:13:33;;;;;;;3.08;1.60;;;;;;;8.79;68.60;101807.47;4992638;28;113370;-34
2022/04/26 04:15:58;;;;;;;3.30;1.15;;;;;;;8.76;69.94;101813.00;4993412;28;96741;-34
2022/04/26 04:21:08;;;;;;;3.40;1.10;;;;;;;8.77;70.15;101811.16;4991646;28;99986;-34
2022/04/26 04:23:38;;;;;;;4.15;1.65;;;;;;;8.81;69.15;101819.09;4992733;28;96391;-34
2022/04/26 04:26:07;;;;;;;2.58;1.70;;;;;;;8.81;70.24;101821.81;4992819;28;96693;-34
2022/04/26 04:28:34;;;;;;;2.58;1.40;;;;;;;8.79;70.57;101817.41;4991246;28;98881;-34
2022/04/26 04:31:00;;;;;;;2.95;1.60;;;;;;;8.77;70.69;101824.69;4992720;28;99199;-34
2022/04/26 04:33:26;;;;;;;2.88;1.38;;;;;;;8.80;69.82;101830.84;4991616;28;96504;-34
2022/04/26 04:35:51;;;;;;;3.38;1.35;;;;;;;8.81;70.90;101829.91;4993061;28;96796;-34
2022/04/26 04:38:16;;;;;;;3.08;1.42;;;;;;;8.80;69.86;101836.25;4992071;28;118604;-34
2022/04/26 04:40:42;;;;;;;6.25;1.45;;;;;;;8.77;70.68;101841.78;4992705;28;101557;-34
2022/04/26 04:43:09;;;;;;;3.97;1.33;;;;;;;8.74;69.92;101835.59;4992875;28;96651;-34
2022/04/26 04:45:35;;;;;;;4.18;1.50;;;;;;;8.73;70.34;101845.53;4991240;28;96687;-34
2022/04/26 04:48:00;;;;;;;3.00;1.85;;;;;;;8.73;71.18;101844.66;4991867;28;99705;-34
2022/04/26 04:50:25;;;;;;;4.25;1.55;;;;;;;8.76;70.41;101858.91;4991260;28;126712;-34
2022/04/26 04:52:51;;;;;;;5.25;1.73;;;;;;;8.78;70.62;101858.88;4991931;28;115286;-34
2022/04/26 04:55:16;;;;;;;4.85;2.08;;;;;;;8.73;70.38;101853.66;4992454;28;97870;-34
2022/04/26 04:57:41;;;;;;;3.15;1.50;;;;;;;8.75;71.14;101865.28;4991501;28;127374;-34
2022/04/26 05:00:07;;;;;;;2.05;1.48;;;;;;;8.77;70.86;101866.09;4992038;28;106397;-34
2022/04/26 05:02:32;;;;;;;4.88;1.63;;;;;;;8.76;70.28;101860.75;4992625;28;96697;-34
2022/04/26 05:04:58;;;;;;;2.45;1.25;;;;;;;8.84;71.69;101878.44;4992616;28;96882;-34
2022/04/26 05:07:23;;;;;;;1.88;1.23;;;;;;;8.80;70.06;101870.50;4990442;28;100955;-34
2022/04/26 05:09:51;;;;;;;3.92;2.10;;;;;;;8.79;70.42;101872.31;4991323;28;126259;-34
2022/04/26 05:12:19;;;;;;;3.22;2.00;;;;;;;8.84;71.09;101885.63;4989974;28;97602;-34
2022/04/26 05:14:44;;;;;;;3.53;1.50;;;;;;;8.81;70.90;101877.66;4990900;28;96867;-34
2022/04/26 05:17:09;;;;;;;4.18;1.70;;;;;;;8.81;70.41;101889.34;4992499;28;97031;-34
2022/04/26 05:19:34;;;;;;;6.07;2.00;;;;;;;8.76;71.04;101894.03;4990904;28;126564;-34
2022/04/26 05:22:00;;;;;;;6.25;1.48;;;;;;;8.75;72.42;101885.97;4991957;28;96639;-34
2022/04/26 05:27:09;;;;;;;2.22;1.45;;;;;;;8.75;72.52;101907.59;4992157;28;97025;-34
2022/04/26 05:29:35;;;;;;;5.68;1.77;;;;;;;8.73;71.67;101904.97;4992003;28;99591;-34
2022/04/26 05:32:01;;;;;;;2.97;1.48;;;;;;;8.68;71.42;101905.13;4997110;28;96750;-34
2022/04/26 05:34:28;;;;;;;8.07;1.90;;;;;;;8.73;72.78;101918.47;4998900;28;96738;-34
2022/04/26 05:36:53;;;;;;;4.30;1.60;;;;;;;8.70;71.20;101916.75;4997917;28;99164;-34
2022/04/26 05:39:18;;;;;;;2.55;1.55;;;;;;;8.64;72.72;101905.28;4998490;28;97263;-34
2022/04/26 05:41:43;;;;;;;2.13;1.25;;;;;;;8.63;71.79;101908.94;4998136;28;108818;-34
2022/04/26 05:44:09;;;;;;;3.08;1.67;;;;;;;8.65;71.76;101917.84;4997668;28;122048;-34
2022/04/26 05:46:35;;;;;;;2.38;1.45;;;;;;;8.62;71.52;101916.16;4997304;28;126452;-34
2022/04/26 05:49:01;;;;;;;7.22;1.92;;;;;;;8.64;71.53;101916.09;4996896;28;101324;-34
2022/04/26 05:51:26;;;;;;;1.48;1.08;;;;;;;8.74;72.24;101932.84;4998393;28;96510;-34
2022/04/26 05:53:51;;;;;;;4.57;1.67;;;;;;;8.77;71.32;101932.72;4998557;28;100717;-34
2022/04/26 05:56:16;;;;;;;2.53;1.17;;;;;;;8.75;71.60;101922.00;4996554;28;114982;-34
2022/04/26 05:58:42;;;;;;;3.03;1.52;;;;;;;8.76;71.61;101929.16;4998244;28;98758;-34
2022/04/26 06:01:07;;;;;;;3.60;1.60;;;;;;;8.79;71.46;101928.16;4997550;28;96615;-34
2022/04/26 06:03:34;;;;;;;3.75;1.98;;;;;;;8.79;71.17;101936.25;4998169;28;96776;-34
2022/04/26 06:05:59;;;;;;;7.25;2.13;;;;;;;8.77;71.84;101932.72;4997828;28;99206;-34
2022/04/26 06:08:24;;;;;;;3.63;1.95;;;;;;;8.78;71.18;101929.97;4998044;28;97850;-34
2022/04/26 06:10:50;;;;;;;3.00;1.52;;;;;;;8.86;71.13;101933.28;4997038;28;121319;-34
2022/04/26 06:13:15;;;;;;;2.38;1.35;;;;;;;8.89;70.98;101922.38;4998274;28;97701;-34
2022/04/26 06:15:40;;;;;;;4.28;1.80;;;;;;;9.01;70.75;101936.34;4997937;28;97793;-34
2022/04/26 06:18:06;;;;;;;0.98;0.82;;;;;;;9.02;70.45;101933.59;4998468;28;97629;-34
2022/04/26 06:20:32;;;;;;;3.10;1.55;;;;;;;9.17;70.70;101942.94;4998293;28;96510;-34
2022/04/26 06:22:57;;;;;;;7.57;2.10;;;;;;;9.31;70.62;101946.00;4998305;28;96721;-34
2022/04/26 06:25:23;;;;;;;3.30;1.67;;;;;;;9.39;69.90;101932.19;4997554;28;97955;-34
2022/04/26 06:27:48;;;;;;;2.88;1.50;;;;;;;9.58;70.13;101935.03;4997930;28;97332;-34
2022/04/26 06:30:15;;;;;;;2.58;1.48;;;;;;;9.67;69.23;101923.84;4997684;28;96486;-34
2022/04/26 06:32:42;;;;;;;2.58;1.77;;;;;;;9.83;68.83;101940.34;4996605;28;96908;-34
2022/04/26 06:35:09;;;;;;;3.63;1.52;;;;;;;9.87;68.30;101951.94;4997758;28;99323;-34
2022/04/26 06:37:34;;;;;;;5.22;2.05;;;;;;;9.84;68.73;101935.81;4996320;28;100640;-34
2022/04/26 06:39:59;;;;;;;2.30;1.40;;;;;;;10.05;68.40;101948.44;4996463;28;96505;-34
2022/04/26 06:42:25;;;;;;;3.13;1.48;;;;;;;10.23;67.46;101938.69;4995583;28;97013;-34
2022/04/26 06:44:50;;;;;;;8.93;1.80;;;;;;;10.29;67.38;101949.28;4994500;28;97917;-34
2022/04/26 06:47:15;;;;;;;4.60;1.58;;;;;;;10.46;67.23;101956.66;4993704;28;115699;-34
2022/04/26 06:49:40;;;;;;;1.85;1.48;;;;;;;10.71;66.83;101961.03;4992938;28;123601;-34
2022/04/26 06:52:06;;;;;;;3.53;1.42;;;;;;;10.89;66.67;101953.91;4993979;28;112385;-34
2022/04/26 06:54:31;;;;;;;2.50;1.80;;;;;;;11.11;65.79;101973.69;4994244;28;98967;-34
2022/04/26 06:56:56;;;;;;;5.30;2.08;;;;;;;10.99;65.56;101964.25;4993506;28;126580;-34
2022/04/26 06:59:21;;;;;;;3.13;1.73;;;;;;;11.18;65.27;101974.28;4993380;28;122177;-34
2022/04/26 07:01:52;;;;;;;3.92;1.75;;;;;;;11.30;65.30;101962.84;4993526;28;121201;-34
2022/04/26 07:04:19;;;;;;;2.47;1.50;;;;;;;11.45;64.79;101978.41;4994030;28;98969;-34
2022/04/26 07:06:45;;;;;;;4.38;1.65;;;;;;;11.58;64.38;101964.25;4992738;28;100782;-34
2022/04/26 07:09:10;;;;;;;3.40;1.63;;;;;;;11.67;63.76;101969.25;4993098;28;96575;-34
2022/04/26 07:11:35;;;;;;;2.90;1.55;;;;;;;11.86;63.68;101972.81;4993784;28;96809;-33
2022/04/26 07:14:01;;;;;;;2.72;1.58;;;;;;;11.87;63.81;101961.03;4993530;28;97516;-34
2022/04/26 07:16:26;;;;;;;5.25;2.10;;;;;;;11.99;63.37;101964.09;4993184;28;126685;-34
2022/04/26 07:18:51;;;;;;;3.67;1.88;;;;;;;12.14;63.21;101979.63;4994522;28;96495;-34
2022/04/26 07:21:17;;;;;;;3.85;1.92;;;;;;;12.17;62.65;101976.75;4994212;28;96753;-34
2022/04/26 07:23:42;;;;;;;2.40;1.48;;;;;;;12.21;62.24;101967.50;4992908;28;126632;-34
2022/04/26 07:26:08;;;;;;;6.65;1.65;;;;;;;11.97;62.40;101974.19;4992373;28;97943;-34
2022/04/26 07:28:34;;;;;;;5.70;1.63;;;;;;;11.80;62.67;101988.53;4992409;28;96699;-34
2022/04/26 07:30:59;;;;;;;5.78;1.92;;;;;;;11.80;63.00;101988.53;4994168;28;96731;-34
2022/04/26 07:36:10;;;;;;;3.80;2.13;;;;;;;11.45;62.85;102001.94;4993821;28;96987;-34
2022/04/26 07:38:38;;;;;;;2.58;1.15;;;;;;;11.37;63.17;102002.31;4993067;28;96483;-34
2022/04/26 07:41:04;;;;;;;2.83;1.63;;;;;;;11.18;64.04;101999.56;4993327;28;96823;-34
2022/04/26 07:43:30;;;;;;;5.18;1.83;;;;;;;11.09;64.01;101986.41;4993676;28;98074;-34
2022/04/26 07:45:55;;;;;;;5.97;1.52;;;;;;;11.28;63.61;101994.59;4993331;28;99122;-34
2022/04/26 07:48:22;;;;;;;1.92;1.33;;;;;;;11.35;63.00;102003.34;4993466;28;96497;-34
2022/04/26 07:50:49;;;;;;;2.20;1.10;;;;;;;11.39;62.69;102003.13;4975451;28;96996;-34
2022/04/26 07:53:27;;;;;;;4.20;1.42;;;;;;;11.39;62.82;101999.50;4975306;28;99658;-34
2022/04/26 07:55:52;;;;;;;3.00;1.42;;;;;;;11.60;61.93;102008.47;4993337;28;98099;-34
2022/04/26 07:58:17;;;;;;;8.88;1.33;;;;;;;11.71;60.85;102003.44;4992983;28;107007;-34
2022/04/26 08:00:43;;;;;;;1.55;1.35;;;;;;;11.77;60.46;102002.25;4992577;28;121924;-34
2022/04/26 08:03:08;;;;;;;2.00;1.15;;;;;;;12.03;59.83;101993.72;4992666;28;99658;-34
2022/04/26 08:05:33;;;;;;;2.80;1.63;;;;;;;12.14;59.66;102009.53;4992360;28;112519;-34
2022/04/26 08:07:59;;;;;;;3.88;1.73;;;;;;;12.29;59.03;102016.03;4993301;28;96909;-34
2022/04/26 08:10:24;;;;;;;3.35;1.45;;;;;;;12.41;58.26;102006.38;4992617;28;96796;-34
2022/04/26 08:12:50;;;;;;;2.97;1.48;;;;;;;12.63;57.75;102011.56;4993148;28;97394;-34
2022/04/26 08:15:18;;;;;;;2.75;1.42;;;;;;;12.80;57.15;102013.41;4993015;28;99716;-34
2022/04/26 08:17:44;;;;;;;3.08;1.08;;;;;;;12.99;55.97;102019.69;4991639;28;96673;-34
2022/04/26 08:20:10;;;;;;;2.78;1.40;;;;;;;13.23;55.86;102017.47;4991991;28;96860;-34
2022/04/26 08:22:37;;;;;;;2.78;1.50;;;;;;;13.43;54.81;102027.31;4992755;28;99340;-34
2022/04/26 08:28:06;;;;;;;5.57;1.38;;;;;;;13.64;55.10;102033.41;5009871;28;96815;-34
2022/04/26 08:30:33;;;;;;;2.75;1.40;;;;;;;13.66;52.66;102027.88;5009705;28;123189;-34
2022/04/26 08:32:59;;;;;;;3.60;1.50;;;;;;;13.71;54.64;102023.06;5001657;28;99659;-34
2022/04/26 08:35:26;;;;;;;8.15;1.65;;;;;;;13.67;55.14;102030.50;4992033;28;108270;-34
2022/04/26 08:37:53;;;;;;;2.38;1.48;;;;;;;13.92;54.13;102034.56;4989336;28;96877;-35
2022/04/26 08:40:19;;;;;;;2.88;1.58;;;;;;;13.92;54.15;102032.75;4990181;28;96815;-34
2022/04/26 08:42:46;;;;;;;3.42;1.65;;;;;;;14.10;54.51;102029.94;4991330;28;100455;-34
2022/04/26 08:45:13;;;;;;;3.03;1.55;;;;;;;14.11;53.57;102038.03;4991556;28;100518;-34
2022/04/26 08:53:09;;;;;;;2.97;1.50;;;;;;;14.59;52.39;102054.38;4992511;28;97027;-34
2022/04/26 08:58:55;;;;;;;4.32;1.40;;;;;;;14.92;51.18;102045.13;4990881;28;96506;-34
2022/04/26 09:01:24;;;;;;;2.75;1.40;;;;;;;15.14;51.54;102051.03;4991767;28;121559;-34
2022/04/26 09:03:54;;;;;;;3.10;1.70;;;;;;;15.40;50.60;102052.16;4992373;28;97946;-34
2022/04/26 09:06:40;;;;;;;3.28;1.58;;;;;;;15.61;50.31;102049.94;4989865;28;100614;-34
2022/04/26 09:09:13;;;;;;;2.33;1.35;;;;;;;15.77;48.98;102057.16;4991967;28;97833;-34
2022/04/26 09:11:38;;;;;;;4.43;1.55;;;;;;;15.70;48.75;102043.88;4990845;28;96837;-34
2022/04/26 09:14:09;;;;;;;5.95;1.80;;;;;;;15.80;48.79;102062.41;4992566;28;97378;-34
2022/04/26 09:16:35;;;;;;;2.17;1.20;;;;;;;15.81;48.09;102056.88;4992139;28;97851;-34
2022/04/26 09:19:58;;;;;;;3.67;1.38;;;;;;;15.50;47.61;102069.72;4990235;28;96923;-34
2022/04/26 09:22:26;;;;;;;;;;;;;;;15.53;47.72;102067.75;4990074;28;96944;-34
2022/04/26 09:25:05;;;;;;;2.00;1.02;;;;;;;15.73;46.27;102058.31;4973156;28;100916;-34
2022/04/26 09:27:34;;;;;;;2.35;1.42;;;;;;;15.96;46.82;102060.47;4990714;28;97178;-34
2022/04/26 09:30:09;;;;;;;2.80;1.33;;;;;;;16.16;45.75;102072.84;4991890;28;96659;-34
2022/04/26 09:32:45;;;;;;;1.95;1.13;;;;;;;16.31;45.69;102070.94;4992094;28;96681;-34
2022/04/26 09:35:18;;;;;;;2.17;1.13;;;;;;;16.50;45.06;102071.47;4990461;28;100901;-34
2022/04/26 09:37:44;;;;;;;1.70;1.15;;;;;;;16.51;45.86;102073.22;4990484;28;100903;-34
2022/04/26 09:40:11;;;;;;;2.13;1.52;;;;;;;16.65;43.85;102063.22;4992098;28;96586;-34
2022/04/26 09:42:36;;;;;;;5.55;1.00;;;;;;;16.41;42.86;102077.56;4990596;28;96754;-34
2022/04/26 09:45:09;;;;;;;4.80;1.60;;;;;;;16.10;45.32;102082.31;4991518;28;97984;-34
2022/04/26 09:47:42;;;;;;;1.90;1.10;;;;;;;15.82;44.50;102076.88;4991654;28;97843;-34
2022/04/26 09:50:09;;;;;;;3.90;1.50;;;;;;;15.31;43.31;102081.88;4991770;28;96613;-34
2022/04/26 09:52:36;;;;;;;17.30;2.85;;;;;;;14.90;45.51;102075.25;4990116;28;96801;-34
2022/04/26 09:55:03;;;;;;;6.18;1.40;;;;;;;14.81;45.89;102082.13;4991523;28;99105;-34
2022/04/26 09:57:32;;;;;;;3.72;1.05;;;;;;;15.14;44.68;102082.94;4990271;28;100843;-34
2022/04/26 09:59:59;;;;;;;2.10;1.45;;;;;;;15.68;45.03;102084.06;4990524;28;96463;-34
2022/04/26 10:02:31;;;;;;;1.98;1.10;;;;;;;16.01;43.20;102082.91;4990690;28;96840;-34
2022/04/26 10:04:58;;;;;;;;;;;;;;;16.33;43.89;102085.41;4990671;28;100816;-34
2022/04/26 10:07:28;;;;;;;5.63;1.50;;;;;;;16.59;42.11;102080.94;4989632;28;100832;-34
2022/04/26 10:09:54;;;;;;;4.45;1.60;;;;;;;16.53;43.55;102086.78;4973094;28;96916;-34
2022/04/26 10:12:21;;;;;;;2.88;1.52;;;;;;;16.57;40.54;102085.63;4989614;28;97776;-34
2022/04/26 10:14:48;;;;;;;11.13;1.70;;;;;;;16.86;41.83;102080.06;4991408;28;99360;-34
2022/04/26 10:17:19;;;;;;;5.15;1.63;;;;;;;17.02;41.68;102085.34;4991211;28;100590;-34
2022/04/26 10:19:44;;;;;;;3.55;1.48;;;;;;;17.19;40.83;102090.53;4993643;28;97129;-34
2022/04/26 10:22:11;;;;;;;4.30;1.33;;;;;;;17.29;42.37;102080.69;4995052;28;96743;-34
2022/04/26 10:24:39;;;;;;;3.10;2.03;;;;;;;17.43;42.22;102087.06;4993450;28;101174;-34
2022/04/26 10:27:25;;;;;;;3.03;1.50;;;;;;;17.50;40.19;102086.53;4993637;28;100979;-34
2022/04/26 10:29:51;;;;;;;4.28;1.80;;;;;;;17.68;39.99;102094.41;4994686;28;96637;-34
2022/04/26 10:32:34;;;;;;;2.22;1.45;;;;;;;17.73;40.19;102086.72;4994626;28;96865;-34
2022/04/26 10:35:24;;;;;;;2.35;1.08;;;;;;;17.95;38.63;102088.84;4993943;28;99036;-34
2022/04/26 10:38:09;;;;;;;2.38;0.95;;;;;;;17.22;39.85;102079.38;4994637;28;97835;-34
2022/04/26 10:41:02;;;;;;;2.50;1.45;;;;;;;16.86;38.95;102091.00;4993138;28;96647;-34
2022/04/26 10:43:28;;;;;;;3.40;1.65;;;;;;;16.34;41.98;102096.22;4994699;28;96783;-34
2022/04/26 10:46:09;;;;;;;2.33;1.50;;;;;;;16.35;42.37;102105.28;4993950;28;121126;-34
2022/04/26 10:48:35;;;;;;;2.42;1.50;;;;;;;16.57;42.45;102093.81;4992970;28;100762;-34
2022/04/26 10:51:35;;;;;;;2.08;1.33;;;;;;;17.08;40.96;102104.97;4976385;28;96587;-34
2022/04/26 10:54:02;;;;;;;2.30;1.40;;;;;;;17.33;41.13;102095.94;4993414;28;96787;-34
2022/04/26 10:56:28;;;;;;;1.48;0.93;;;;;;;17.58;40.52;102097.78;4993046;28;100865;-34
2022/04/26 10:58:53;;;;;;;4.43;1.35;;;;;;;17.60;39.90;102097.69;4994171;28;98772;-34
2022/04/26 11:01:23;;;;;;;2.42;1.35;;;;;;;17.82;39.39;102108.03;4994062;28;96720;-34
2022/04/26 11:03:56;;;;;;;2.90;1.27;;;;;;;17.88;38.02;102099.38;4992920;28;96871;-34
2022/04/26 11:06:36;;;;;;;1.90;1.13;;;;;;;18.10;36.56;102111.50;4993838;28;99767;-34
2022/04/26 11:09:20;;;;;;;1.63;0.88;;;;;;;17.87;36.29;102103.09;4994060;28;99124;-34
2022/04/26 11:11:47;;;;;;;2.13;0.90;;;;;;;17.61;37.20;102104.91;4992412;28;96956;-34
2022/04/26 11:14:13;;;;;;;1.67;1.00;;;;;;;17.71;38.29;102095.06;4992669;28;96833;-34
2022/04/26 11:16:53;;;;;;;1.77;0.80;;;;;;;17.93;35.47;102112.75;4993947;28;97481;-34
2022/04/26 11:19:27;;;;;;;2.10;1.10;;;;;;;17.94;34.43;102118.09;4992834;28;100738;-34
2022/04/26 11:21:53;;;;;;;2.55;1.52;;;;;;;17.96;36.29;102099.69;4992378;28;96746;-34
2022/04/26 11:29:53;;;;;;;1.92;1.08;;;;;;;18.71;34.91;102108.78;4993165;28;97090;-34
2022/04/26 11:32:34;;;;;;;3.42;1.20;;;;;;;18.83;34.03;102113.38;4992331;28;96553;-34
2022/04/26 11:35:00;;;;;;;2.33;1.05;;;;;;;18.58;35.01;102109.72;4992484;28;96747;-34
2022/04/26 11:37:26;;;;;;;1.77;0.82;;;;;;;18.25;36.29;102119.47;4992210;28;104446;-34
2022/04/26 11:39:52;;;;;;;2.90;1.48;;;;;;;17.65;37.63;102106.47;4992153;28;100932;-34
2022/04/26 11:42:19;;;;;;;2.15;1.30;;;;;;;17.45;38.85;102118.84;4993705;28;96689;-34
2022/04/26 11:45:01;;;;;;;4.60;1.67;;;;;;;16.98;38.46;102125.75;4992510;28;96929;-34
2022/04/26 11:47:44;;;;;;;1.67;1.13;;;;;;;16.66;39.53;102136.09;4992127;28;101101;-34
2022/04/26 11:50:18;;;;;;;2.78;1.48;;;;;;;16.50;40.21;102126.19;4993289;28;99127;-34
2022/04/26 11:52:45;;;;;;;2.40;1.40;;;;;;;16.34;40.88;102137.25;4993034;28;96653;-34
2022/04/26 11:55:29;;;;;;;4.57;2.15;;;;;;;16.16;41.30;102137.56;4992037;28;96915;-35
2022/04/26 11:58:27;;;;;;;4.93;2.28;;;;;;;16.56;41.48;102130.34;4991962;28;100776;-34
2022/04/26 12:01:18;;;;;;;2.53;1.17;;;;;;;16.72;41.75;102135.69;4991866;28;97922;-34
2022/04/26 12:03:49;;;;;;;2.13;1.42;;;;;;;17.25;41.47;102144.00;4993021;28;96645;-34
2022/04/26 12:06:35;;;;;;;3.53;1.48;;;;;;;17.32;41.05;102132.50;4991676;28;96817;-34
2022/04/26 12:09:03;;;;;;;3.53;1.45;;;;;;;16.92;40.75;102138.00;4992682;28;101548;-34
2022/04/26 12:11:30;;;;;;;2.65;1.50;;;;;;;17.15;41.37;102149.22;4992866;28;97253;-34
2022/04/26 12:14:00;;;;;;;7.82;1.65;;;;;;;17.55;40.69;102141.00;4991751;28;96586;-34
2022/04/26 12:16:26;;;;;;;6.22;2.00;;;;;;;17.80;40.60;102131.88;4993075;28;96850;-34
2022/04/26 12:18:56;;;;;;;6.57;1.55;;;;;;;17.51;39.88;102133.97;4991136;28;100661;-34
2022/04/26 12:21:24;;;;;;;3.30;1.50;;;;;;;16.91;40.64;102138.09;4991529;28;100879;-34
2022/04/26 12:24:12;;;;;;;2.13;1.58;;;;;;;17.14;40.06;102137.41;4991745;28;96627;-34
2022/04/26 12:26:52;;;;;;;2.40;1.27;;;;;;;17.13;39.40;102135.63;4991480;28;96654;-34
2022/04/26 12:29:17;;;;;;;2.03;1.10;;;;;;;16.75;40.65;102140.94;4992485;28;99893;-34
2022/04/26 12:31:45;;;;;;;3.25;1.38;;;;;;;16.55;41.31;102153.22;4992613;28;99156;-34
2022/04/26 12:34:16;;;;;;;3.15;1.73;;;;;;;16.38;41.10;102137.94;4992848;28;96561;-34
2022/04/26 12:37:03;;;;;;;2.45;1.42;;;;;;;16.71;40.44;102151.25;4991910;28;96769;-34
2022/04/26 12:39:44;;;;;;;3.28;0.98;;;;;;;16.96;39.81;102145.00;4992582;28;99478;-34
2022/04/26 12:42:12;;;;;;;4.70;1.73;;;;;;;17.31;39.47;102138.97;4992294;28;97859;-34
2022/04/26 12:44:56;;;;;;;3.75;1.10;;;;;;;17.30;38.73;102150.03;4992325;28;96554;-34
2022/04/26 12:50:31;;;;;;;2.38;1.40;;;;;;;17.53;37.80;102141.09;4992814;28;97211;-34
2022/04/26 12:53:08;;;;;;;2.22;1.25;;;;;;;17.51;38.15;102148.53;4992699;28;97651;-34
2022/04/26 12:55:35;;;;;;;2.08;1.15;;;;;;;17.25;38.74;102164.03;4992553;28;96596;-34
2022/04/26 12:58:03;;;;;;;2.45;1.00;;;;;;;16.81;39.12;102164.34;4974688;28;96834;-34
2022/04/26 13:00:30;;;;;;;1.85;1.08;;;;;;;16.72;39.39;102163.94;4990965;28;101180;-34
2022/04/26 13:02:59;;;;;;;2.53;1.10;;;;;;;16.85;38.25;102147.63;4991180;28;100747;-34
2022/04/26 13:05:24;;;;;;;4.70;1.05;;;;;;;17.11;38.84;102158.63;4991115;28;97280;-34
2022/04/26 13:07:51;;;;;;;1.48;1.10;;;;;;;17.30;39.30;102159.13;4992508;28;96785;-34
2022/04/26 13:10:18;;;;;;;2.92;1.30;;;;;;;17.64;38.47;102162.28;4989827;28;100806;-33
2022/04/26 13:12:44;;;;;;;4.97;1.30;;;;;;;17.50;39.06;102152.28;4992219;28;97952;-34
2022/04/26 13:15:10;;;;;;;2.42;1.25;;;;;;;17.17;38.41;102166.44;4990955;28;96596;-34
2022/04/26 13:17:37;;;;;;;1.00;0.77;;;;;;;16.89;38.22;102168.31;4991029;28;96869;-34
2022/04/26 13:20:07;;;;;;;1.52;1.13;;;;;;;16.63;38.53;102174.59;4974327;28;101337;-34
2022/04/26 13:22:34;;;;;;;2.70;1.70;;;;;;;16.16;40.23;102160.31;4991986;28;102215;-34
2022/04/26 13:25:01;;;;;;;4.70;1.20;;;;;;;15.85;38.79;102172.28;4990707;28;96717;-34
2022/04/26 13:27:27;;;;;;;2.83;1.70;;;;;;;15.87;40.49;102170.34;4991176;28;96921;-34
2022/04/26 13:29:52;;;;;;;3.58;1.60;;;;;;;16.06;41.10;102167.34;4991722;28;99707;-34
2022/04/26 13:32:18;;;;;;;2.25;1.17;;;;;;;16.32;40.20;102165.66;4991809;28;99725;-34
2022/04/26 13:34:44;;;;;;;3.35;1.45;;;;;;;16.49;39.95;102167.28;4987738;28;96839;-34
2022/04/26 13:37:11;;;;;;;2.80;1.38;;;;;;;16.61;39.98;102163.75;4972023;28;96814;-34
2022/04/26 13:39:38;;;;;;;2.15;1.40;;;;;;;16.65;39.58;102168.03;4970252;28;100865;-34
2022/04/26 13:42:05;;;;;;;1.98;1.25;;;;;;;16.66;38.63;102164.34;4972098;28;97877;-34
2022/04/26 13:44:30;;;;;;;1.77;1.00;;;;;;;16.69;39.78;102163.28;4983023;28;97372;-34
2022/04/26 13:46:57;;;;;;;2.60;1.27;;;;;;;16.64;39.31;102169.03;4992287;28;96828;-34
2022/04/26 13:49:23;;;;;;;2.38;1.40;;;;;;;16.66;39.71;102166.19;4991586;28;97924;-34
2022/04/26 13:51:48;;;;;;;5.85;1.15;;;;;;;16.59;39.73;102173.94;4991383;28;97732;-34
2022/04/26 13:54:13;;;;;;;2.15;1.20;;;;;;;16.60;39.60;102167.47;4994968;28;96699;-34
2022/04/26 13:56:39;;;;;;;4.03;1.50;;;;;;;16.52;40.13;102156.19;4994544;28;121476;-34
2022/04/26 13:59:04;;;;;;;2.97;1.45;;;;;;;16.51;40.36;102154.41;4994686;28;99260;-34
2022/04/26 14:01:30;;;;;;;7.63;1.42;;;;;;;16.61;39.79;102165.63;4981932;28;127912;-34
2022/04/26 14:03:55;;;;;;;6.88;1.33;;;;;;;16.56;40.39;102150.41;4982789;28;96651;-34
2022/04/26 14:06:21;;;;;;;1.95;1.10;;;;;;;16.60;40.21;102166.59;4993815;28;123425;-34
2022/04/26 14:08:50;;;;;;;2.38;1.30;;;;;;;16.64;40.18;102149.88;4977561;28;100849;-34
2022/04/26 14:11:19;;;;;;;4.78;1.35;;;;;;;16.62;42.11;102161.91;4973306;28;101007;-34
2022/04/26 14:21:57;;;;;;;1.85;1.15;;;;;;;16.11;41.99;102171.56;4995013;28;97056;-34
2022/04/26 14:24:23;;;;;;;1.92;1.08;;;;;;;15.97;42.39;102166.09;4993229;28;96727;-35
2022/04/26 14:26:49;;;;;;;2.22;1.00;;;;;;;15.71;42.94;102159.53;4995168;28;96863;-34
2022/04/26 14:29:15;;;;;;;2.00;1.08;;;;;;;15.68;42.49;102162.38;4994373;28;100052;-35
2022/04/26 14:31:41;;;;;;;1.80;1.10;;;;;;;15.60;43.77;102162.88;4993292;28;100691;-35
2022/04/26 14:34:07;;;;;;;1.50;1.00;;;;;;;15.44;43.44;102183.91;4993313;28;97364;-35
2022/04/26 14:36:33;;;;;;;6.45;1.20;;;;;;;15.29;43.79;102169.31;4994708;28;96807;-35
2022/04/26 14:38:58;;;;;;;2.53;1.10;;;;;;;15.34;44.27;102172.66;4994006;28;99377;-35
2022/04/26 14:41:23;;;;;;;2.58;1.20;;;;;;;15.41;44.08;102157.66;4993688;28;119917;-35
2022/04/26 14:43:49;;;;;;;1.77;1.10;;;;;;;15.34;43.93;102166.31;4992672;28;107724;-35
2022/04/26 14:46:14;;;;;;;1.00;0.77;;;;;;;15.28;44.20;102160.25;4993732;28;96828;-35
2022/04/26 14:48:39;;;;;;;2.03;1.17;;;;;;;15.26;42.30;102167.66;4991650;28;119821;-35
2022/04/26 14:51:05;;;;;;;1.42;1.08;;;;;;;15.19;43.58;102166.28;4993564;28;126636;-35
2022/04/26 14:53:30;;;;;;;4.43;0.93;;;;;;;15.10;42.69;102169.56;4993834;28;116481;-35
2022/04/26 14:55:59;;;;;;;4.93;1.30;;;;;;;14.93;43.83;102178.72;4994619;28;96737;-35
2022/04/26 14:58:24;;;;;;;2.67;1.27;;;;;;;14.80;44.09;102166.75;4992949;28;100946;-35
2022/04/26 15:00:49;;;;;;;3.17;1.13;;;;;;;14.89;43.71;102171.69;4994140;28;97981;-35
2022/04/26 15:03:15;;;;;;;3.95;1.50;;;;;;;14.91;44.21;102182.53;4993308;28;100656;-35
2022/04/26 15:05:40;;;;;;;2.20;1.20;;;;;;;14.80;43.75;102185.84;4994124;28;96874;-35
2022/04/26 15:10:49;;;;;;;3.22;1.23;;;;;;;14.71;44.55;102186.41;4993649;28;97025;-35
2022/04/26 15:18:42;;;;;;;3.05;1.08;;;;;;;14.62;44.62;102179.63;4994211;28;97103;-35
2022/04/26 15:21:09;;;;;;;1.40;0.95;;;;;;;14.58;44.18;102175.31;4992607;28;99037;-35
2022/04/26 15:23:35;;;;;;;3.50;1.10;;;;;;;14.63;44.18;102182.28;4993909;28;96521;-35
2022/04/26 15:26:03;;;;;;;3.67;1.30;;;;;;;14.69;44.38;102174.72;4992716;28;96845;-35
2022/04/26 15:28:29;;;;;;;1.80;0.93;;;;;;;14.68;44.29;102173.81;4992296;28;100848;-35
2022/04/26 15:30:55;;;;;;;2.58;1.42;;;;;;;14.62;44.53;102188.69;4994024;28;99311;-35
2022/04/26 15:33:22;;;;;;;2.33;1.05;;;;;;;14.52;44.98;102186.56;4993672;28;96513;-35
2022/04/26 15:35:47;;;;;;;5.72;1.40;;;;;;;14.46;45.23;102179.59;4993698;28;96899;-35
2022/04/26 15:38:14;;;;;;;2.03;1.20;;;;;;;14.40;45.11;102179.94;4993074;28;97603;-35
2022/04/26 15:40:40;;;;;;;1.60;1.13;;;;;;;14.43;45.37;102183.38;4993885;28;97789;-35
2022/04/26 15:43:06;;;;;;;4.22;1.23;;;;;;;14.36;44.72;102186.53;4992387;28;96618;-35
2022/04/26 15:45:33;;;;;;;2.47;1.35;;;;;;;14.31;45.66;102184.06;4993819;28;96770;-35
2022/04/26 15:47:58;;;;;;;2.50;1.30;;;;;;;14.42;45.58;102191.66;4992148;28;100828;-35
2022/04/26 15:50:23;;;;;;;3.15;1.48;;;;;;;14.42;45.66;102195.25;4993189;28;98717;-35